Time;durP1;ratioP1;P1;durP2;ratioP2;P2;SDS_P1;SDS_P2;PMS_P1;PMS_P2;Temp;Humidity;BMP_temperature;BMP_pressure;BME280_temperature;BME280_humidity;BME280_pressure;Samples;Min_cycle;Max_cycle;Signal;HPM_P1;HPM_P2
2023/07/06 00:02:23;;;;;;;6.13;2.03;;;;;;;-145.69;100.00;52141.41;5075269;28;20642;-91
2023/07/06 00:04:52;;;;;;;4.80;2.00;;;;;;;-145.69;100.00;52159.22;5075895;28;20234;-91
2023/07/06 00:07:21;;;;;;;7.47;2.03;;;;;;;-145.69;100.00;52139.41;5075847;28;20211;-91
2023/07/06 00:09:48;;;;;;;3.50;1.80;;;;;;;-145.69;100.00;52151.28;5075704;28;20252;-91
2023/07/06 00:12:14;;;;;;;7.87;2.20;;;;;;;-145.69;100.00;52141.41;5075196;28;20206;-92
2023/07/06 00:14:41;;;;;;;8.10;2.70;;;;;;;-145.69;100.00;52155.25;5075683;28;20210;-91
2023/07/06 00:17:11;;;;;;;7.50;2.00;;;;;;;-145.69;100.00;52186.94;5075612;28;20206;-91
2023/07/06 00:19:38;;;;;;;4.83;2.00;;;;;;;-145.69;100.00;52143.38;5075736;28;20210;-92
2023/07/06 00:22:07;;;;;;;3.53;2.05;;;;;;;-145.69;100.00;52155.25;5075742;28;20198;-92
2023/07/06 00:24:34;;;;;;;7.17;2.20;;;;;;;-145.69;100.00;52151.28;5075468;28;20235;-91
2023/07/06 00:27:01;;;;;;;9.50;2.33;;;;;;;-145.69;100.00;52157.25;5075468;28;20201;-91
2023/07/06 00:29:33;;;;;;;11.83;2.33;;;;;;;-145.69;100.00;52135.47;5074668;28;20238;-91
2023/07/06 00:32:26;;;;;;;5.97;2.27;;;;;;;-145.69;100.00;52145.34;5074805;28;20293;-92
2023/07/06 00:34:52;;;;;;;3.37;1.90;;;;;;;-145.69;100.00;52151.28;5055069;28;20555;-92
2023/07/06 00:37:24;;;;;;;5.53;2.10;;;;;;;-145.69;100.00;52123.56;5055143;28;20210;-92
2023/07/06 00:39:53;;;;;;;4.47;2.30;;;;;;;-145.69;100.00;52125.56;5058093;28;20205;-92
2023/07/06 00:42:24;;;;;;;7.63;2.00;;;;;;;-145.69;100.00;52159.22;5055458;28;20319;-92
2023/07/06 00:44:53;;;;;;;7.93;2.00;;;;;;;-145.69;100.00;52131.50;5054883;28;20272;-92
2023/07/06 00:47:32;;;;;;;5.17;2.10;;;;;;;-145.69;100.00;52133.47;5055080;28;20234;-93
2023/07/06 00:50:02;;;;;;;8.50;2.47;;;;;;;-145.69;100.00;52175.06;5053814;28;20697;-92
2023/07/06 00:52:31;;;;;;;6.63;2.20;;;;;;;-145.69;100.00;52139.41;5055008;28;20230;-91
2023/07/06 00:55:00;;;;;;;4.70;2.20;;;;;;;-145.69;100.00;52149.31;5054996;28;20234;-92
2023/07/06 00:57:29;;;;;;;5.97;2.40;;;;;;;-145.69;100.00;52163.19;5054988;28;20665;-93
2023/07/06 00:59:59;;;;;;;6.07;2.40;;;;;;;-145.69;100.00;52173.09;5054652;28;20211;-91
2023/07/06 01:02:30;;;;;;;4.30;2.20;;;;;;;-145.69;100.00;52147.34;5055050;28;20199;-92
2023/07/06 01:05:04;;;;;;;6.70;2.30;;;;;;;-145.69;100.00;52165.16;5054695;28;20231;-92
2023/07/06 01:07:39;;;;;;;4.23;2.40;;;;;;;-145.69;100.00;52175.06;5055407;28;20249;-91
2023/07/06 01:10:09;;;;;;;4.67;2.10;;;;;;;-145.69;100.00;52175.06;5054993;28;20616;-90
2023/07/06 01:12:44;;;;;;;5.53;2.30;;;;;;;-145.69;100.00;52163.19;5054708;28;20214;-92
2023/07/06 01:15:12;;;;;;;6.43;1.87;;;;;;;-145.69;100.00;52179.03;5054766;28;20214;-92
2023/07/06 01:17:53;;;;;;;4.80;2.10;;;;;;;-145.69;100.00;52181.00;5054370;28;20211;-92
2023/07/06 01:20:39;;;;;;;5.97;2.10;;;;;;;-145.69;100.00;52145.34;5054645;28;20635;-92
2023/07/06 01:23:46;;;;;;;9.93;2.53;;;;;;;-145.69;100.00;52167.13;5054662;28;20286;-92
2023/07/06 01:26:31;;;;;;;3.60;1.90;;;;;;;-145.69;100.00;52204.75;5053710;28;20238;-92
2023/07/06 01:29:31;;;;;;;7.10;2.17;;;;;;;-145.69;100.00;52151.28;5053806;28;20240;-91
2023/07/06 01:32:05;;;;;;;3.20;1.87;;;;;;;-145.69;100.00;52153.28;5054601;28;20203;-91
2023/07/06 01:34:41;;;;;;;2.93;2.10;;;;;;;-145.69;100.00;52151.28;5054696;28;20207;-92
2023/07/06 01:37:12;;;;;;;6.43;2.10;;;;;;;-145.69;100.00;52177.03;5054611;28;20589;-92
2023/07/06 01:39:39;;;;;;;4.67;2.40;;;;;;;-145.69;100.00;52143.38;5054595;28;20207;-91
2023/07/06 01:42:26;;;;;;;3.70;2.20;;;;;;;-145.69;100.00;52157.25;5054416;28;20203;-91
2023/07/06 01:44:55;;;;;;;3.97;2.40;;;;;;;-145.69;100.00;52165.16;5054477;28;20226;-92
2023/07/06 01:47:24;;;;;;;6.07;2.37;;;;;;;-145.69;100.00;52141.41;5054664;28;20569;-91
2023/07/06 01:49:52;;;;;;;6.33;2.00;;;;;;;-145.69;100.00;52173.09;5054072;28;20265;-92
2023/07/06 01:52:29;;;;;;;3.93;2.20;;;;;;;-145.69;100.00;52167.13;5054307;28;20222;-92
2023/07/06 01:55:09;;;;;;;2.57;1.90;;;;;;;-145.69;100.00;52155.25;5054657;28;20223;-91
2023/07/06 01:57:40;;;;;;;4.03;1.80;;;;;;;-145.69;100.00;52151.28;5054420;28;20227;-92
2023/07/06 02:00:14;;;;;;;6.67;2.00;;;;;;;-145.69;100.00;52157.25;5054223;28;20203;-92
2023/07/06 02:02:47;;;;;;;6.00;2.03;;;;;;;-145.69;100.00;52147.34;5054060;28;20205;-92
2023/07/06 02:05:15;;;;;;;4.93;2.03;;;;;;;-145.69;100.00;52194.88;5068329;28;20214;-91
2023/07/06 02:07:43;;;;;;;7.27;1.80;;;;;;;-145.69;100.00;52167.13;5074356;28;20214;-91
2023/07/06 02:10:19;;;;;;;5.47;2.17;;;;;;;-145.69;100.00;52181.00;5074020;28;20198;-92
2023/07/06 02:12:47;;;;;;;6.93;2.10;;;;;;;-145.69;100.00;52194.88;5074011;28;20212;-92
2023/07/06 02:15:16;;;;;;;4.13;2.00;;;;;;;-145.69;100.00;52175.06;5074286;28;20203;-90
2023/07/06 02:17:44;;;;;;;4.00;2.13;;;;;;;-145.69;100.00;52175.06;5074370;28;20565;-92
2023/07/06 02:20:12;;;;;;;8.07;2.20;;;;;;;-145.69;100.00;52171.09;5074424;28;20207;-91
2023/07/06 02:22:39;;;;;;;6.23;2.20;;;;;;;-145.69;100.00;52186.94;5074165;28;20210;-92
2023/07/06 02:25:15;;;;;;;4.93;2.27;;;;;;;-145.69;100.00;52216.66;5074351;28;20276;-91
2023/07/06 02:27:46;;;;;;;6.47;2.30;;;;;;;-145.69;100.00;52202.78;5074235;28;20198;-92
2023/07/06 02:30:13;;;;;;;2.30;1.70;;;;;;;-145.69;100.00;52173.09;5074009;28;20199;-92
2023/07/06 02:32:40;;;;;;;3.40;2.40;;;;;;;-145.69;100.00;52151.28;5074238;28;20260;-92
2023/07/06 02:35:10;;;;;;;6.23;2.10;;;;;;;-145.69;100.00;52194.88;5060592;28;20210;-92
2023/07/06 02:37:46;;;;;;;7.40;1.90;;;;;;;-145.69;100.00;52206.75;5057365;28;20213;-93
2023/07/06 02:40:12;;;;;;;7.73;2.17;;;;;;;-145.69;100.00;52190.91;5057907;28;20199;-92
2023/07/06 02:42:41;;;;;;;4.27;2.10;;;;;;;-145.69;100.00;52181.00;5057921;28;20210;-91
2023/07/06 02:45:09;;;;;;;4.00;2.00;;;;;;;-145.69;100.00;52165.16;5063661;28;20245;-91
2023/07/06 02:47:36;;;;;;;4.53;2.30;;;;;;;-145.69;100.00;52186.94;5077631;28;20213;-91
2023/07/06 02:50:03;;;;;;;4.10;2.03;;;;;;;-145.69;100.00;52198.81;5077492;28;20234;-92
2023/07/06 02:52:31;;;;;;;3.70;2.10;;;;;;;-145.69;100.00;52159.22;5077208;28;20730;-92
2023/07/06 02:54:58;;;;;;;3.90;2.13;;;;;;;-145.69;100.00;52163.19;5073514;28;20200;-93
2023/07/06 02:57:24;;;;;;;10.33;2.83;;;;;;;-145.69;100.00;52175.06;5065981;28;20234;-92
2023/07/06 02:59:51;;;;;;;4.97;2.20;;;;;;;-145.69;100.00;52194.88;5056909;28;20261;-93
2023/07/06 03:02:18;;;;;;;5.67;2.07;;;;;;;-145.69;100.00;52173.09;5057653;28;20282;-91
2023/07/06 03:04:48;;;;;;;3.97;2.10;;;;;;;-145.69;100.00;52175.06;5057185;28;20223;-92
2023/07/06 03:07:15;;;;;;;3.77;2.17;;;;;;;-145.69;100.00;52196.84;5057142;28;20290;-91
2023/07/06 03:09:44;;;;;;;4.40;2.00;;;;;;;-145.69;100.00;52177.03;5057303;28;20273;-92
2023/07/06 03:12:11;;;;;;;3.07;2.17;;;;;;;-145.69;100.00;52159.22;5057316;28;20574;-92
2023/07/06 03:14:37;;;;;;;3.50;2.10;;;;;;;-145.69;100.00;52194.88;5056870;28;20204;-91
2023/07/06 03:17:04;;;;;;;7.57;2.67;;;;;;;-145.69;100.00;52179.03;5055987;28;20211;-91
2023/07/06 03:19:31;;;;;;;6.13;2.50;;;;;;;-145.69;100.00;52186.94;5056918;28;20214;-92
2023/07/06 03:21:58;;;;;;;6.70;2.03;;;;;;;-145.69;100.00;52153.28;5056833;28;20206;-91
2023/07/06 03:24:26;;;;;;;4.83;2.13;;;;;;;-145.69;100.00;52171.09;5056980;28;20199;-92
2023/07/06 03:26:54;;;;;;;5.57;2.10;;;;;;;-145.69;100.00;52179.03;5056477;28;20237;-92
2023/07/06 03:29:22;;;;;;;5.22;2.40;;;;;;;-145.69;100.00;52171.09;5054910;28;20519;-91
2023/07/06 03:31:48;;;;;;;4.47;2.20;;;;;;;-145.69;100.00;52179.03;5056215;28;20196;-91
2023/07/06 03:34:18;;;;;;;4.53;2.03;;;;;;;-145.69;100.00;52202.78;5056062;28;20207;-91
2023/07/06 03:36:46;;;;;;;5.33;2.50;;;;;;;-145.69;100.00;52181.00;5055880;28;20551;-92
2023/07/06 03:39:15;;;;;;;5.13;2.03;;;;;;;-145.69;100.00;52145.34;5056296;28;20264;-92
2023/07/06 03:41:42;;;;;;;4.63;2.33;;;;;;;-145.69;100.00;52177.03;5056396;28;20718;-92
2023/07/06 03:44:14;;;;;;;4.80;2.37;;;;;;;-145.69;100.00;52179.03;5056381;28;20257;-92
2023/07/06 03:46:40;;;;;;;3.23;2.20;;;;;;;-145.69;100.00;52204.75;5056278;28;20327;-92
2023/07/06 03:49:09;;;;;;;5.33;2.43;;;;;;;-145.69;100.00;52171.09;5055453;28;20230;-92
2023/07/06 03:51:36;;;;;;;3.50;2.20;;;;;;;-145.69;100.00;52173.09;5056247;28;20240;-92
2023/07/06 03:54:06;;;;;;;4.90;2.07;;;;;;;-145.69;100.00;52212.69;5056039;28;20299;-92
2023/07/06 03:56:33;;;;;;;5.13;2.50;;;;;;;-145.69;100.00;52194.88;5056309;28;20219;-91
2023/07/06 03:59:01;;;;;;;5.40;2.30;;;;;;;-145.69;100.00;52181.00;5055956;28;20214;-92
2023/07/06 04:01:32;;;;;;;9.43;2.03;;;;;;;-145.69;100.00;52188.91;5055962;28;20211;-92
2023/07/06 04:03:59;;;;;;;4.00;2.10;;;;;;;-145.69;100.00;52171.09;5056029;28;20203;-93
2023/07/06 04:06:29;;;;;;;4.10;2.23;;;;;;;-145.69;100.00;52153.28;5055491;28;20227;-91
2023/07/06 04:08:59;;;;;;;3.95;2.13;;;;;;;-145.69;100.00;52184.97;5075422;28;20437;-92
2023/07/06 04:11:26;;;;;;;7.43;2.80;;;;;;;-145.69;100.00;52167.13;5075406;28;20293;-91
2023/07/06 04:13:59;;;;;;;5.93;2.33;;;;;;;-145.69;100.00;52188.91;5075488;28;20207;-92
2023/07/06 04:16:26;;;;;;;3.60;2.27;;;;;;;-145.69;100.00;52186.94;5076345;28;20645;-92
2023/07/06 04:18:56;;;;;;;8.27;2.07;;;;;;;-145.69;100.00;52190.91;5075649;28;20203;-92
2023/07/06 04:21:23;;;;;;;4.60;2.13;;;;;;;-145.69;100.00;52171.09;5075823;28;20206;-92
2023/07/06 04:23:50;;;;;;;4.03;2.20;;;;;;;-145.69;100.00;52184.97;5075734;28;20297;-92
2023/07/06 04:26:18;;;;;;;4.47;2.03;;;;;;;-145.69;100.00;52159.22;5072687;28;20233;-92
2023/07/06 04:28:44;;;;;;;3.73;2.13;;;;;;;-145.69;100.00;52167.13;5055348;28;20230;-92
2023/07/06 04:31:11;;;;;;;3.50;2.20;;;;;;;-145.69;100.00;52192.88;5055570;28;20298;-91
2023/07/06 04:33:38;;;;;;;3.50;2.10;;;;;;;-145.69;100.00;52151.28;5055274;28;20609;-92
2023/07/06 04:36:09;;;;;;;8.80;2.00;;;;;;;-145.69;100.00;52177.03;5055759;28;20217;-92
2023/07/06 04:38:36;;;;;;;4.70;2.10;;;;;;;-145.69;100.00;52186.94;5055191;28;20196;-92
2023/07/06 04:41:04;;;;;;;4.80;2.13;;;;;;;-145.69;100.00;52194.88;5054920;28;20212;-91
2023/07/06 04:43:31;;;;;;;4.77;2.30;;;;;;;-145.69;100.00;52216.66;5055034;28;20207;-91
2023/07/06 04:45:58;;;;;;;3.80;2.30;;;;;;;-145.69;100.00;52179.03;5054855;28;20234;-91
2023/07/06 04:48:26;;;;;;;4.77;2.13;;;;;;;-145.69;100.00;52186.94;5054980;28;20207;-92
2023/07/06 04:50:55;;;;;;;3.63;2.10;;;;;;;-145.69;100.00;52186.94;5054987;28;20266;-91
2023/07/06 04:53:25;;;;;;;2.57;1.83;;;;;;;-145.69;100.00;52186.94;5053937;28;20261;-91
2023/07/06 04:55:56;;;;;;;4.63;1.80;;;;;;;-145.69;100.00;52151.28;5055162;28;20286;-92
2023/07/06 04:58:23;;;;;;;4.63;2.00;;;;;;;-145.69;100.00;52210.72;5055006;28;20199;-91
2023/07/06 05:00:51;;;;;;;4.00;1.90;;;;;;;-145.69;100.00;52169.13;5055200;28;20223;-91
2023/07/06 05:03:18;;;;;;;5.20;2.40;;;;;;;-145.69;100.00;52161.19;5055006;28;20207;-92
2023/07/06 05:05:50;;;;;;;3.43;2.23;;;;;;;-145.69;100.00;52184.97;5054675;28;20234;-91
2023/07/06 05:08:19;;;;;;;4.17;2.20;;;;;;;-145.69;100.00;52171.09;5054826;28;20294;-91
2023/07/06 05:10:51;;;;;;;4.40;2.23;;;;;;;-145.69;100.00;52167.13;5054852;28;20268;-92
2023/07/06 05:13:19;;;;;;;2.60;2.00;;;;;;;-145.69;100.00;52165.16;5054909;28;20219;-91
2023/07/06 05:15:45;;;;;;;5.60;2.30;;;;;;;-145.69;100.00;52198.81;5055243;28;20204;-91
2023/07/06 05:18:12;;;;;;;6.30;2.53;;;;;;;-145.69;100.00;52186.94;5054734;28;20223;-92
2023/07/06 05:20:40;;;;;;;5.47;2.40;;;;;;;-145.69;100.00;52147.34;5054546;28;20204;-91
2023/07/06 05:23:08;;;;;;;6.67;2.00;;;;;;;-145.69;100.00;52204.75;5054730;28;20204;-92
2023/07/06 05:25:38;;;;;;;4.87;2.33;;;;;;;-145.69;100.00;52169.13;5054705;28;20277;-91
2023/07/06 05:28:06;;;;;;;4.97;2.67;;;;;;;-145.69;100.00;52190.91;5054757;28;20654;-91
2023/07/06 05:30:33;;;;;;;3.67;2.00;;;;;;;-145.69;100.00;52161.19;5053126;28;20451;-91
2023/07/06 05:33:00;;;;;;;3.88;2.00;;;;;;;-145.69;100.00;52163.19;5054850;28;20494;-91
2023/07/06 05:35:29;;;;;;;5.28;2.10;;;;;;;-145.69;100.00;52151.28;5054162;28;20210;-91
2023/07/06 05:37:56;;;;;;;3.33;1.70;;;;;;;-145.69;100.00;52131.50;5054678;28;20207;-91
2023/07/06 05:40:23;;;;;;;3.67;1.73;;;;;;;-145.69;100.00;52159.22;5054351;28;20286;-91
2023/07/06 05:42:50;;;;;;;3.53;2.15;;;;;;;-145.69;100.00;52151.28;5054301;28;20211;-91
2023/07/06 05:45:18;;;;;;;5.00;1.98;;;;;;;-145.69;100.00;52123.56;5053740;28;20298;-92
2023/07/06 05:47:45;;;;;;;6.18;2.10;;;;;;;-145.69;100.00;52151.28;5053852;28;20298;-91
2023/07/06 05:50:11;;;;;;;5.05;2.03;;;;;;;-145.69;100.00;52123.56;5053999;28;20237;-91
2023/07/06 05:52:41;;;;;;;3.83;2.00;;;;;;;-145.69;100.00;52131.50;5054087;28;20294;-92
2023/07/06 05:55:09;;;;;;;5.13;2.03;;;;;;;-145.69;100.00;52080.00;5054107;28;20203;-91
2023/07/06 05:57:36;;;;;;;5.72;1.90;;;;;;;-145.69;100.00;52099.81;5054292;28;20203;-91
2023/07/06 06:00:09;;;;;;;5.65;2.47;;;;;;;-145.69;100.00;52107.72;5053952;28;20215;-91
2023/07/06 06:02:39;;;;;;;5.30;2.10;;;;;;;-145.69;99.98;52091.88;5065143;28;20195;-91
2023/07/06 06:05:11;;;;;;;3.58;1.67;;;;;;;-145.69;97.45;52087.94;5074259;28;20251;-90
2023/07/06 06:07:40;;;;;;;7.68;2.38;;;;;;;-145.69;93.04;52155.25;5074043;28;20222;-90
2023/07/06 06:10:08;;;;;;;9.35;1.90;;;;;;;-145.69;91.51;52072.09;5074429;28;20227;-90
2023/07/06 06:12:35;;;;;;;4.90;1.90;;;;;;;-145.69;89.96;52070.09;5078115;28;20198;-91
2023/07/06 06:15:02;;;;;;;7.03;2.10;;;;;;;-145.69;90.36;52089.91;5078329;28;20203;-90
2023/07/06 06:17:29;;;;;;;6.72;1.65;;;;;;;-145.69;96.88;52109.72;5076136;28;20222;-91
2023/07/06 06:19:57;;;;;;;3.67;1.98;;;;;;;-145.69;95.58;52111.69;5077760;28;20198;-91
2023/07/06 06:22:32;;;;;;;5.25;1.58;;;;;;;-145.69;87.45;52076.03;5078078;28;20572;-90
2023/07/06 06:24:59;;;;;;;4.80;2.53;;;;;;;-145.69;86.02;52064.16;5077665;28;20236;-91
2023/07/06 06:27:26;;;;;;;5.82;1.90;;;;;;;-145.69;87.19;52078.03;5077788;28;20280;-91
2023/07/06 06:29:53;;;;;;;3.72;1.75;;;;;;;-145.69;89.34;52091.88;5077183;28;20700;-91
2023/07/06 06:32:22;;;;;;;5.93;1.77;;;;;;;-145.69;90.47;52080.00;5077696;28;20573;-91
2023/07/06 06:34:51;;;;;;;3.63;1.92;;;;;;;-145.69;93.80;52091.88;5077392;28;20207;-91
2023/07/06 06:37:19;;;;;;;4.57;2.30;;;;;;;-145.69;94.97;52117.63;5077298;28;20562;-90
2023/07/06 06:39:51;;;;;;;4.22;2.08;;;;;;;-145.69;98.63;52099.81;5077518;28;20261;-91
2023/07/06 06:42:18;;;;;;;5.50;1.75;;;;;;;-145.69;95.36;52103.78;5077610;28;20206;-91
2023/07/06 06:44:45;;;;;;;7.32;1.92;;;;;;;-145.69;94.94;52123.56;5077443;28;20210;-91
2023/07/06 06:47:11;;;;;;;5.65;2.13;;;;;;;-145.69;95.05;52107.72;5075826;28;20237;-91
2023/07/06 06:49:38;;;;;;;4.68;2.30;;;;;;;-145.69;96.82;52115.66;5076718;28;20570;-90
2023/07/06 06:52:06;;;;;;;3.97;2.10;;;;;;;-145.69;91.66;52111.69;5077079;28;20230;-91
2023/07/06 06:54:34;;;;;;;7.80;2.22;;;;;;;-145.69;91.85;52111.69;5076917;28;20286;-92
2023/07/06 06:57:03;;;;;;;10.60;1.98;;;;;;;-145.69;91.59;52091.88;5077058;28;20206;-91
2023/07/06 06:59:32;;;;;;;4.78;2.05;;;;;;;-145.69;86.04;52111.69;5076691;28;20206;-92
2023/07/06 07:02:01;;;;;;;5.53;1.98;;;;;;;-145.69;84.15;52087.94;5076774;28;20283;-91
2023/07/06 07:04:29;;;;;;;3.20;2.15;;;;;;;-145.69;84.75;52052.28;5077055;28;20203;-91
2023/07/06 07:07:03;;;;;;;9.20;2.33;;;;;;;-145.69;85.78;52089.91;5077159;28;20230;-91
2023/07/06 07:09:29;;;;;;;4.25;1.95;;;;;;;-145.69;79.39;52083.97;5077515;28;20628;-91
2023/07/06 07:11:57;;;;;;;5.32;2.35;;;;;;;-145.69;81.18;52052.28;5076935;28;20705;-90
2023/07/06 07:14:25;;;;;;;5.95;2.10;;;;;;;-145.69;79.56;52099.81;5076923;28;20206;-91
2023/07/06 07:16:52;;;;;;;4.32;2.30;;;;;;;-145.69;78.84;52115.66;5077113;28;20230;-91
2023/07/06 07:19:19;;;;;;;5.00;2.35;;;;;;;-145.69;79.92;52078.03;5076518;28;20299;-92
2023/07/06 07:21:46;;;;;;;4.10;2.13;;;;;;;-145.69;91.83;52062.19;5076995;28;20234;-91
2023/07/06 07:24:16;;;;;;;4.72;2.13;;;;;;;-145.69;85.85;52087.94;5077221;28;20664;-91
2023/07/06 07:26:48;;;;;;;6.85;2.00;;;;;;;-145.69;83.97;52083.97;5076721;28;20685;-91
2023/07/06 07:29:20;;;;;;;5.85;1.92;;;;;;;-145.69;82.27;52105.75;5077011;28;20309;-90
2023/07/06 07:31:49;;;;;;;6.50;2.42;;;;;;;-145.69;77.79;52087.94;5076306;28;20561;-92
2023/07/06 07:34:17;;;;;;;4.57;1.90;;;;;;;-145.69;78.37;52085.94;5077071;28;20203;-91
2023/07/06 07:36:44;;;;;;;3.95;2.00;;;;;;;-145.69;82.29;52040.41;5076686;28;20229;-91
2023/07/06 07:39:14;;;;;;;4.05;2.10;;;;;;;-145.69;87.31;52083.97;5076826;28;20214;-90
2023/07/06 07:41:43;;;;;;;9.48;2.45;;;;;;;-145.69;86.70;52107.72;5077990;28;20209;-91
2023/07/06 07:44:09;;;;;;;4.35;2.10;;;;;;;-145.69;82.59;52107.72;5076680;28;20268;-91
2023/07/06 07:46:37;;;;;;;5.28;2.50;;;;;;;-145.69;80.52;52095.84;5077127;28;20776;-90
2023/07/06 07:49:07;;;;;;;8.38;2.30;;;;;;;-145.69;83.61;52095.84;5077290;28;20266;-91
2023/07/06 07:51:36;;;;;;;6.97;2.33;;;;;;;-145.69;84.63;52085.94;5076046;28;20265;-89
2023/07/06 07:54:03;;;;;;;6.28;2.25;;;;;;;-145.69;85.33;52119.63;5079223;28;20199;-89
2023/07/06 07:56:30;;;;;;;5.18;2.30;;;;;;;-145.69;82.40;52099.81;5079357;28;20202;-91
2023/07/06 07:58:56;;;;;;;5.75;2.40;;;;;;;-145.69;84.33;52068.13;5076855;28;20617;-90
2023/07/06 08:01:27;;;;;;;5.10;2.08;;;;;;;-145.69;79.04;52091.88;5076554;28;20207;-89
2023/07/06 08:03:57;;;;;;;4.63;2.30;;;;;;;-145.69;77.79;52072.09;5075510;28;20245;-90
2023/07/06 08:06:24;;;;;;;4.55;2.13;;;;;;;-145.69;79.12;52103.78;5077219;28;20230;-89
2023/07/06 08:08:51;;;;;;;4.35;2.35;;;;;;;-145.69;79.84;52099.81;5079682;28;20713;-91
2023/07/06 08:11:20;;;;;;;5.45;2.85;;;;;;;-145.69;77.81;52087.94;5076534;28;20550;-90
2023/07/06 08:16:32;;;;;;;4.15;2.50;;;;;;;-145.69;72.33;52070.09;5076383;28;20249;-90
2023/07/06 08:19:02;;;;;;;5.15;3.08;;;;;;;-145.69;71.10;52095.84;5079033;28;20210;-90
2023/07/06 08:21:29;;;;;;;6.00;2.53;;;;;;;-145.69;72.34;52080.00;5077347;28;20225;-89
2023/07/06 08:23:59;;;;;;;7.93;2.40;;;;;;;-145.69;72.50;52076.03;5074040;28;20226;-90
2023/07/06 08:26:31;;;;;;;4.85;2.15;;;;;;;-145.69;72.71;52056.25;5075990;28;20256;-87
2023/07/06 08:29:04;;;;;;;4.10;2.63;;;;;;;-145.69;69.82;52032.47;5077364;28;20203;-90
2023/07/06 08:31:30;;;;;;;4.55;2.60;;;;;;;-145.69;69.30;52064.16;5076088;28;20281;-90
2023/07/06 08:34:00;;;;;;;5.35;2.50;;;;;;;-145.69;67.40;52078.03;5079093;28;20207;-91
2023/07/06 08:36:28;;;;;;;5.13;2.33;;;;;;;-145.69;66.52;52103.78;5077953;28;20233;-89
2023/07/06 08:38:56;;;;;;;8.00;2.30;;;;;;;-145.69;73.21;52083.97;5077125;28;20675;-88
2023/07/06 08:41:31;;;;;;;4.07;2.25;;;;;;;-145.69;72.61;52080.00;5077789;28;20199;-90
2023/07/06 08:43:59;;;;;;;6.22;2.58;;;;;;;-145.69;66.42;52054.25;5076140;28;20233;-90
2023/07/06 08:46:29;;;;;;;4.78;2.00;;;;;;;-145.69;64.58;52012.69;5075704;28;20620;-90
2023/07/06 08:49:00;;;;;;;4.50;2.15;;;;;;;-145.69;60.81;52087.94;5075510;28;20209;-90
2023/07/06 08:51:31;;;;;;;6.00;2.80;;;;;;;-145.69;53.65;52048.31;5074915;28;20234;-90
2023/07/06 08:54:01;;;;;;;5.82;2.50;;;;;;;-145.69;57.74;52080.00;5075073;28;20205;-89
2023/07/06 08:56:36;;;;;;;5.30;2.60;;;;;;;-145.69;52.93;52078.03;5075978;28;20220;-90
2023/07/06 08:59:07;;;;;;;9.50;2.70;;;;;;;-145.69;56.85;52078.03;5076446;28;20645;-90
2023/07/06 09:01:36;;;;;;;5.88;2.50;;;;;;;-145.69;57.15;52060.22;5075391;28;20210;-89
2023/07/06 09:04:16;;;;;;;5.03;2.67;;;;;;;-145.69;63.50;52036.44;5075089;28;20214;-91
2023/07/06 09:06:48;;;;;;;6.90;2.75;;;;;;;-145.69;62.11;52076.03;5074550;28;20719;-90
2023/07/06 09:09:16;;;;;;;4.72;2.40;;;;;;;-145.69;66.47;52018.63;5075297;28;20199;-90
2023/07/06 09:11:44;;;;;;;3.58;2.33;;;;;;;-145.69;59.04;52032.47;5075025;28;20214;-89
2023/07/06 09:14:14;;;;;;;5.63;2.38;;;;;;;-145.69;60.39;52044.38;5074927;28;20198;-90
2023/07/06 09:16:47;;;;;;;4.22;2.40;;;;;;;-145.69;51.29;52018.63;5075340;28;20383;-90
2023/07/06 09:19:17;;;;;;;4.15;2.55;;;;;;;-145.69;46.61;52008.72;5075258;28;20210;-90
2023/07/06 09:21:48;;;;;;;4.20;2.20;;;;;;;-145.69;45.91;52042.38;5075062;28;20220;-87
2023/07/06 09:24:14;;;;;;;4.10;2.05;;;;;;;-145.69;45.38;52020.59;5074852;28;20206;-85
2023/07/06 09:26:44;;;;;;;6.05;2.20;;;;;;;-145.69;42.87;51996.84;5074780;28;20237;-91
2023/07/06 09:29:18;;;;;;;5.40;2.60;;;;;;;-145.69;42.26;51986.94;5073927;28;20206;-90
2023/07/06 09:31:45;;;;;;;6.97;2.50;;;;;;;-145.69;41.68;51998.81;5075254;28;20207;-90
2023/07/06 09:34:27;;;;;;;4.53;2.30;;;;;;;-145.69;41.69;51984.97;5074872;28;20195;-90
2023/07/06 09:36:59;;;;;;;4.50;2.70;;;;;;;-145.69;41.15;51981.00;5072831;28;20285;-89
2023/07/06 09:39:26;;;;;;;4.50;2.33;;;;;;;-145.69;41.00;51961.19;5074350;28;20198;-89
2023/07/06 09:41:54;;;;;;;6.28;2.30;;;;;;;-145.69;41.14;51973.06;5074066;28;20209;-87
2023/07/06 09:44:26;;;;;;;9.30;2.67;;;;;;;-145.69;41.09;51977.03;5074479;28;20198;-90
2023/07/06 09:46:55;;;;;;;3.30;1.98;;;;;;;-145.69;42.16;52016.66;5076582;28;20218;-90
2023/07/06 09:49:26;;;;;;;7.72;2.60;;;;;;;-145.69;44.35;52028.53;5078791;28;20226;-89
2023/07/06 09:52:00;;;;;;;7.32;2.33;;;;;;;-145.69;43.51;51996.84;5077762;28;20272;-91
2023/07/06 09:54:32;;;;;;;6.57;2.78;;;;;;;-145.69;43.43;52040.41;5078668;28;20199;-90
2023/07/06 09:57:00;;;;;;;4.50;2.25;;;;;;;-145.69;45.53;52004.75;5078496;28;20256;-89
2023/07/06 09:59:27;;;;;;;3.83;2.33;;;;;;;-145.69;43.88;52016.66;5077643;28;20217;-88
2023/07/06 10:02:00;;;;;;;5.47;2.50;;;;;;;-145.69;43.90;52000.81;5077942;28;20209;-89
2023/07/06 10:04:57;;;;;;;6.13;2.90;;;;;;;-145.69;43.64;52008.72;5077886;28;20220;-88
2023/07/06 10:07:39;;;;;;;4.53;2.30;;;;;;;-145.69;42.94;51992.88;5079758;28;20226;-89
2023/07/06 10:10:15;;;;;;;8.77;2.42;;;;;;;-145.69;41.33;51981.00;5077195;28;20173;-88
2023/07/06 10:12:51;;;;;;;6.07;2.90;;;;;;;-145.69;41.71;51973.06;5078115;28;20562;-90
2023/07/06 10:15:25;;;;;;;19.40;2.83;;;;;;;-145.69;41.36;52024.56;5077679;28;20202;-88
2023/07/06 10:18:04;;;;;;;6.60;2.65;;;;;;;-145.69;41.69;52000.81;5078026;28;20226;-88
2023/07/06 10:20:37;;;;;;;8.40;2.60;;;;;;;-145.69;42.98;52026.53;5078117;28;20236;-91
2023/07/06 10:23:32;;;;;;;4.38;2.53;;;;;;;-145.69;42.33;51998.81;5077162;28;20297;-89
2023/07/06 10:26:11;;;;;;;4.55;2.40;;;;;;;-145.69;41.39;52000.81;5077894;28;20207;-89
2023/07/06 10:28:43;;;;;;;4.88;2.63;;;;;;;-145.69;40.66;52012.69;5077802;28;20287;-89
2023/07/06 10:31:16;;;;;;;5.28;2.38;;;;;;;-145.69;42.24;51998.81;5077047;28;20203;-89
2023/07/06 10:33:53;;;;;;;4.78;2.40;;;;;;;-145.69;41.41;51988.91;5059614;28;20192;-89
2023/07/06 10:36:20;;;;;;;4.00;2.42;;;;;;;-145.69;43.77;52012.69;5057181;28;20249;-89
2023/07/06 10:38:50;;;;;;;4.53;2.50;;;;;;;-145.69;44.25;51979.03;5057191;28;20223;-88
2023/07/06 10:41:34;;;;;;;4.05;2.38;;;;;;;-145.69;43.86;51998.81;5055795;28;20195;-89
2023/07/06 10:44:43;;;;;;;4.55;2.55;;;;;;;-145.69;42.46;51979.03;5056190;28;20601;-89
2023/07/06 10:47:34;;;;;;;3.78;2.60;;;;;;;-145.69;41.64;51967.13;5056926;28;20219;-88
2023/07/06 10:50:27;;;;;;;4.43;2.67;;;;;;;-145.69;42.95;51998.81;5057004;28;20239;-88
2023/07/06 10:53:09;;;;;;;6.38;2.90;;;;;;;-145.69;42.24;51961.19;5051986;28;20234;-88
2023/07/06 10:55:38;;;;;;;7.20;2.78;;;;;;;-145.69;41.58;51977.03;5056593;28;20207;-86
2023/07/06 10:58:27;;;;;;;7.72;2.80;;;;;;;-145.69;41.12;51965.16;5056290;28;20238;-90
2023/07/06 11:00:57;;;;;;;6.13;2.63;;;;;;;-145.69;40.65;52026.53;5055003;28;20613;-89
2023/07/06 11:03:28;;;;;;;5.35;2.80;;;;;;;-145.69;40.53;51992.88;5056576;28;20211;-86
2023/07/06 11:06:05;;;;;;;5.82;2.90;;;;;;;-145.69;42.33;51984.97;5056818;28;20234;-89
2023/07/06 11:09:04;;;;;;;4.43;2.50;;;;;;;-145.69;40.37;52014.66;5055383;28;20230;-89
2023/07/06 11:11:34;;;;;;;4.47;2.65;;;;;;;-145.69;39.80;52002.78;5056816;28;20691;-89
2023/07/06 11:14:20;;;;;;;5.20;2.75;;;;;;;-145.69;40.88;51965.16;5056489;28;20206;-89
2023/07/06 11:16:56;;;;;;;6.00;2.75;;;;;;;-145.69;40.11;51996.84;5056043;28;20211;-91
2023/07/06 11:19:34;;;;;;;7.32;2.90;;;;;;;-145.69;39.34;52004.75;5057355;28;20260;-90
2023/07/06 11:22:06;;;;;;;6.70;2.78;;;;;;;-145.69;40.16;51981.00;5056410;28;20676;-89
2023/07/06 11:24:40;;;;;;;4.43;2.80;;;;;;;-145.69;41.39;51971.09;5056149;28;20275;-90
2023/07/06 11:27:29;;;;;;;7.30;2.70;;;;;;;-145.69;39.88;52012.69;5056085;28;20203;-88
2023/07/06 11:30:03;;;;;;;3.92;2.80;;;;;;;-145.69;39.80;51982.97;5056275;28;20249;-90
2023/07/06 11:32:38;;;;;;;5.60;2.80;;;;;;;-145.69;39.84;51986.94;5055955;28;20225;-88